MacAlister, Canada
Current Conditions -  °F | °C
As of 6:00 PM on Friday 31 Oct 2014 (Local Time) from CYWL Reporting Station
Broken Clouds Broken Clouds  
Wind Chill: 33°   Ceiling: 9000
Heat Index: 37°   Visibility: 15mi
Dew Point: 34°   Wind: 6mph
Humidity: 87%   Direction: 40°NE
Pressure: 29.72"   Gusts: NA
Location:  52.45°N, 122.4°W
Report Text: CYWL 010100Z 04005KT 15SM FEW020 BKN090 03/01 A2972 RMK SC2AC4 SLP092
Loading
Personal Weather Stations






























Interactive Weather Map
Tropical Storm Tracking
New forecast layout! Learn more

10-Day Weather Forecast

Advertisements
Track Severe Weather on mobile